Magdalena, New Mexico
Current Conditions -  °F | °C
As of 11:55 AM on Monday 20 Oct 2014 (Local Time) from KONM Reporting Station
Clear Clear  
Wind Chill: 64°   Ceiling: Unl
Heat Index: 64°   Visibility: 10mi
Dew Point: 50°   Wind: 8mph
Humidity: 61%   Direction: 360°N
Pressure: 30.18"   Gusts: NA
Location:  34.12°N, 107.24°W
Report Text: KONM 201755Z AUTO 36007KT 10SM CLR 18/10 A3018 RMK AO2 T01760099 10176 20096
Loading
Personal Weather Stations






























Interactive Weather Map
Tropical Storm Tracking
New forecast layout! Learn more

10-Day Weather Forecast

Advertisements
Track Severe Weather on mobile